Accueil
METAR-TAF:

METAR-TAF

Aéroports :

Kwajalein, Îles Marshall

latitude: 08-43N, longitude: 167-44E, altitude: 3 m

Observation

Le bulletin a été fait il y a 23 minutes, à 09:20 UTC
Vent 17 kt de est
Température 28°C
Humidité 79%
Pression 1006 hPa
Visibilité: 16.1 km
Nuages épars à une hauteur de 2000 ft

METAR: PKWA 240920Z AUTO 08017KT 10SM SCT020 28/24 A2972 RMK AO2 T02790239

Heure: 21:43 (09:43 UTC)

Prévision

Le bulletin a été fait il y a 4 heures et 23 minutes, à 05:20 UTC
Prévision valable du 24 à 06 UTC au 25 à 06 UTC
Vent 12 kt de est/nord-est avec des rafales jusqu'à 22 kt
Visibilité: 10 km
Quelques nuages à une hauteur de 2000 ft
Nuages épars à une hauteur de 5000 ft

TAF: PKWA 240520Z 2406/2506 06012G22KT P6SM FEW020 SCT050

Observations et prévisions météorologiques de plus de 4000 aéroports (messages METAR et TAF).

Les stations disponibles sont représentées par des disques jaunes et rouges sur la carte.

Passer la souris dessus pour voir le nom de la station.

Cliquer dessus pour voir les observations et prévisions météorologiques.

Pour changer de carte: cliquez sur les boutons verts avec une croix noire pour zoomer, sur le bouton vert avec un tiret pour effectuer un zoom arrière, ou sur les flèches vertes pour les cartes adjacentes.


METAR-TAF: